This is the latest recevied weather packets stored in our database for station/object K7LDN-13. If no packets are shown the sender has not sent any weather packets the latest 10 day(s).
| Time | Temp. | Humidity | Pressure | Rain* | Wind** | Luminosity | Snow |
|---|---|---|---|---|---|---|---|
| 1777633407 | 5° C | 55% | 1021.7 hPa | 0 mm | - | 0 W/m² | - |
| 1777633105 | 5° C | 55% | 1021.8 hPa | 0 mm | - | 0 W/m² | - |
| 1777632801 | 5.56° C | 53% | 1021.6 hPa | 0 mm | - | 0 W/m² | - |
| 1777632497 | 5.56° C | 51% | 1021.4 hPa | 0 mm | - | 0 W/m² | - |
| 1777631891 | 5.56° C | 52% | 1021.3 hPa | 0 mm | - | 0 W/m² | - |
| 1777631590 | 5.56° C | 51% | 1021.4 hPa | 0 mm | - | 0 W/m² | - |
| 1777631287 | 6.67° C | 48% | 1021.4 hPa | 0 mm | - | 0 W/m² | - |
| 1777630983 | 6.11° C | 49% | 1021.6 hPa | 0 mm | - | 0 W/m² | - |
| 1777630679 | 6.67° C | 48% | 1021.3 hPa | 0 mm | - | 0 W/m² | - |
| 1777630376 | 6.67° C | 49% | 1021.4 hPa | 0 mm | - | 0 W/m² | - |
| 1777630074 | 6.67° C | 47% | 1021.4 hPa | 0 mm | - | 0 W/m² | - |
| 1777629771 | 6.67° C | 47% | 1021.6 hPa | 0 mm | - | 0 W/m² | - |
| 1777629468 | 6.67° C | 47% | 1021.4 hPa | 0 mm | - | 0 W/m² | - |
| 1777628861 | 6.67° C | 48% | 1021.4 hPa | 0 mm | - | 0 W/m² | - |
| 1777628253 | 6.11° C | 50% | 1021.3 hPa | 0 mm | - | 0 W/m² | - |
| 1777627949 | 6.67° C | 50% | 1021.2 hPa | 0 mm | - | 0 W/m² | - |
| 1777627643 | 7.22° C | 48% | 1021.2 hPa | 0 mm | - | 0 W/m² | - |
| 1777627342 | 7.78° C | 45% | 1021.4 hPa | 0 mm | - | 0 W/m² | - |
| 1777627040 | 7.22° C | 45% | 1021.3 hPa | 0 mm | - | 0 W/m² | - |
| 1777626735 | 7.78° C | 44% | 1021.1 hPa | 0 mm | - | 0 W/m² | - |
| 1777626432 | 7.78° C | 44% | 1021.2 hPa | 0 mm | - | 0 W/m² | - |
| 1777626131 | 7.78° C | 45% | 1021.2 hPa | 0 mm | - | 0 W/m² | - |
| 1777625826 | 7.78° C | 44% | 1021.3 hPa | 0 mm | - | 0 W/m² | - |
| 1777625522 | 8.33° C | 43% | 1021.2 hPa | 0 mm | - | 0 W/m² | - |
| 1777625217 | 8.33° C | 43% | 1021.3 hPa | 0 mm | - | 0 W/m² | - |
* Rain latest hour (hover to see other rain measurements)
** Current wind speed in m/s (hover to see current wind gust speed)